Hertfordshire — ZDJS5 — position and weather

sailwx.info

Track history (hours):
 
Tides and Currents Weather Stations Pressure Air Temp Water Temp Dewpoint Dewpoint Depression Visibility Wind Speed Wind Dir Waves Ship Positions

Hertfordshire

Last reported at 2015-Mar-26 23:33 UTC. Time now 2015-Mar-26 23:50 UTC.
Position N 52°04' E 001°44'.

Length 83 m; draft 4.9 m.

Type: Cargo ship. MMSI: 236563000.

Date/timePositionNaut miles runAvg speedWind from/ knotsBaromVisibWave heightAir tempDewpointWater temp
2015-Mar-26 23:33N 52°04' E 001°44'1111.5
2015-Mar-26 22:33N 52°15' E 001°46'1110.5
2015-Mar-26 21:33N 52°26' E 001°50'9 9.4
2015-Mar-26 20:33N 52°35' E 001°52'8 8.2
2015-Mar-26 19:33N 52°42' E 001°47'9 8.6
2015-Mar-26 18:34N 52°49' E 001°37'8 8.4
2015-Mar-26 17:33N 52°54' E 001°27'8 8.5
2015-Mar-26 16:33N 52°59' E 001°15'46 9.2
2015-Mar-26 11:34N 53°36' E 000°30'10 9.5
2015-Mar-26 10:33N 53°45' E 000°24'9 9.5
2015-Mar-26 09:33N 53°53' E 000°16'9 9.4
2015-Mar-26 08:33N 54°01' E 000°08'1010.1
2015-Mar-26 07:34N 54°10' W 000°01'1010.1
2015-Mar-26 06:33N 54°18' W 000°11'1010.1
2015-Mar-26 05:33N 54°26' W 000°22'10 9.9
2015-Mar-26 04:33N 54°32' W 000°35'10 9.8
2015-Mar-26 03:33N 54°37' W 000°50'9 9.5
2015-Mar-26 02:33N 54°40' W 001°06'4 0.4
2015-Mar-25 17:21N 54°36' W 001°09'0 0.0
2015-Mar-25 16:34N 54°36' W 001°09'0 0.0
2015-Mar-25 15:21N 54°36' W 001°09'0 0.0
2015-Mar-25 14:21N 54°36' W 001°09'0 0.0
2015-Mar-25 13:24N 54°36' W 001°09'0 0.0
2015-Mar-25 12:24N 54°36' W 001°09'0 0.0
2015-Mar-25 11:27N 54°36' W 001°09'0 0.0
2015-Mar-25 10:27N 54°36' W 001°09'0 0.0
2015-Mar-25 09:21N 54°36' W 001°09'0 0.0
2015-Mar-25 08:24N 54°36' W 001°09'3 4.0
2015-Mar-25 07:32N 54°40' W 001°08'10 9.5
2015-Mar-25 06:32N 54°49' W 001°10'9 9.2
2015-Mar-25 05:33N 54°58' W 001°14'  
2015-Mar-22 00:10N 55°13' W 001°12'44 9.2
2015-Mar-21 19:24N 54°36' W 000°32'7 7.8
2015-Mar-21 18:34N 54°30' W 000°25'7 6.5
2015-Mar-21 17:34N 54°25' W 000°19'6 5.6
2015-Mar-21 16:33N 54°20' W 000°14'5 5.0
2015-Mar-21 15:34N 54°16' W 000°09'5 5.2
2015-Mar-21 14:34N 54°12' W 000°03'5 5.2
2015-Mar-21 13:34N 54°08' E 000°01'6 6.0
2015-Mar-21 12:33N 54°02' E 000°06'7 6.9
2015-Mar-21 11:33N 53°56' E 000°11'8 8.2
2015-Mar-21 10:33N 53°49' E 000°18'9 8.7
2015-Mar-21 09:33N 53°42' E 000°26'8 8.2
2015-Mar-21 08:33N 53°34' E 000°32'37 7.0
2015-Mar-21 03:17N 53°03' E 001°05'811.4
2015-Mar-21 02:33N 52°59' E 001°17'1212.2
2015-Mar-21 01:33N 52°52' E 001°33'1312.8
2015-Mar-21 00:33N 52°42' E 001°47'1110.6
2015-Mar-20 23:33N 52°32' E 001°51'9 9.3
2015-Mar-20 22:33N 52°23' E 001°48'8 8.5
2015-Mar-20 21:33N 52°15' E 001°44'8 7.5
2015-Mar-20 20:33N 52°07' E 001°41'7 7.4
2015-Mar-20 19:33N 52°01' E 001°36'8 7.8
2015-Mar-20 18:34N 51°53' E 001°31'1010.1
2015-Mar-20 17:33N 51°44' E 001°24'1211.7
2015-Mar-20 16:33N 51°35' E 001°12'1312.6
2015-Mar-20 15:33N 51°30' E 000°54'1312.9
2015-Mar-20 14:33N 51°30' E 000°33'8 8.4
2015-Mar-20 13:34N 51°28' E 000°20'0 0.1
2015-Mar-20 12:31N 51°28' E 000°20'0 0.0
2015-Mar-20 11:33N 51°28' E 000°20'0 0.0
2015-Mar-20 10:34N 51°28' E 000°20'0 0.0
2015-Mar-20 09:33N 51°28' E 000°20'0 0.0
2015-Mar-20 08:34N 51°28' E 000°20'0 0.0
2015-Mar-20 07:34N 51°28' E 000°20'0 0.0
2015-Mar-20 06:30N 51°28' E 000°20'0 0.0
2015-Mar-20 05:34N 51°28' E 000°20'0 0.0
2015-Mar-20 04:33N 51°28' E 000°20'0 0.0
2015-Mar-20 03:33N 51°28' E 000°20'0 0.0
2015-Mar-20 02:34N 51°28' E 000°20'0 0.0
2015-Mar-20 01:34N 51°28' E 000°20'0 0.1
2015-Mar-20 00:33N 51°28' E 000°20'8 8.1
2015-Mar-19 23:34N 51°30' E 000°32'1212.4
2015-Mar-19 22:34N 51°30' E 000°52'1010.0
2015-Mar-19 21:34N 51°30' E 001°08'1212.0
2015-Mar-19 20:34N 51°27' E 001°27'8 8.2
2015-Mar-19 19:34N 51°20' E 001°35'7 6.9
2015-Mar-19 18:34N 51°14' E 001°37'7 6.5
2015-Mar-19 17:34N 51°07' E 001°39'6 6.5
2015-Mar-19 16:34N 51°02' E 001°34'7 7.3
2015-Mar-19 15:33N 50°56' E 001°28'101 9.9
2015-Mar-19 05:18N 50°25' W 001°05'1012.4
2015-Mar-19 04:30N 50°26' W 001°20'53 8.5
2015-Mar-18 22:15N 50°22' W 002°43'7 9.8
2015-Mar-18 21:34N 50°20' W 002°53'1010.3
2015-Mar-18 20:34N 50°17' W 003°08'1110.8
2015-Mar-18 19:34N 50°13' W 003°24'224 9.3
2015-Mar-17 19:32N 50°58' W 009°10'1010.4
2015-Mar-17 18:34N 51°04' W 009°23'1010.3
2015-Mar-17 17:34N 51°11' W 009°35'1010.3
2015-Mar-17 16:34N 51°17' W 009°48'1010.1
2015-Mar-17 15:34N 51°24' W 010°00'1010.3
2015-Mar-17 14:33N 51°30' W 010°13'11 9.9
2015-Mar-17 13:28N 51°38' W 010°26'13 9.7
2015-Mar-17 12:05N 51°49' W 010°37'7 9.8
2015-Mar-17 11:21N 51°56' W 010°41'14 8.1
2015-Mar-17 09:33N 52°10' W 010°36'1110.5
2015-Mar-17 08:29N 52°16' W 010°21'1010.9
2015-Mar-17 07:34N 52°22' W 010°07'1111.3
2015-Mar-17 06:34N 52°29' W 009°52'  
Track history (hours):
 
Tides and Currents Weather Stations Pressure Air Temp Water Temp Dewpoint Dewpoint Depression Visibility Wind Speed Wind Dir Waves Ship Positions

Hertfordshire

Last reported at 2015-Mar-26 23:33 UTC. Time now 2015-Mar-26 23:50 UTC.
Position N 52°04' E 001°44'.

Length 83 m; draft 4.9 m.

Type: Cargo ship. MMSI: 236563000.

Date/timePositionNaut miles runAvg speedWind from/ knotsBaromVisibWave heightAir tempDewpointWater temp
2015-Mar-26 23:33N 52°04' E 001°44'1111.5
2015-Mar-26 22:33N 52°15' E 001°46'1110.5
2015-Mar-26 21:33N 52°26' E 001°50'9 9.4
2015-Mar-26 20:33N 52°35' E 001°52'8 8.2
2015-Mar-26 19:33N 52°42' E 001°47'9 8.6
2015-Mar-26 18:34N 52°49' E 001°37'8 8.4
2015-Mar-26 17:33N 52°54' E 001°27'8 8.5
2015-Mar-26 16:33N 52°59' E 001°15'46 9.2
2015-Mar-26 11:34N 53°36' E 000°30'10 9.5
2015-Mar-26 10:33N 53°45' E 000°24'9 9.5
2015-Mar-26 09:33N 53°53' E 000°16'9 9.4
2015-Mar-26 08:33N 54°01' E 000°08'1010.1
2015-Mar-26 07:34N 54°10' W 000°01'1010.1
2015-Mar-26 06:33N 54°18' W 000°11'1010.1
2015-Mar-26 05:33N 54°26' W 000°22'10 9.9
2015-Mar-26 04:33N 54°32' W 000°35'10 9.8
2015-Mar-26 03:33N 54°37' W 000°50'9 9.5
2015-Mar-26 02:33N 54°40' W 001°06'4 0.4
2015-Mar-25 17:21N 54°36' W 001°09'0 0.0
2015-Mar-25 16:34N 54°36' W 001°09'0 0.0
2015-Mar-25 15:21N 54°36' W 001°09'0 0.0
2015-Mar-25 14:21N 54°36' W 001°09'0 0.0
2015-Mar-25 13:24N 54°36' W 001°09'0 0.0
2015-Mar-25 12:24N 54°36' W 001°09'0 0.0
2015-Mar-25 11:27N 54°36' W 001°09'0 0.0
2015-Mar-25 10:27N 54°36' W 001°09'0 0.0
2015-Mar-25 09:21N 54°36' W 001°09'0 0.0
2015-Mar-25 08:24N 54°36' W 001°09'3 4.0
2015-Mar-25 07:32N 54°40' W 001°08'10 9.5
2015-Mar-25 06:32N 54°49' W 001°10'9 9.2
2015-Mar-25 05:33N 54°58' W 001°14'  
2015-Mar-22 00:10N 55°13' W 001°12'44 9.2
2015-Mar-21 19:24N 54°36' W 000°32'7 7.8
2015-Mar-21 18:34N 54°30' W 000°25'7 6.5
2015-Mar-21 17:34N 54°25' W 000°19'6 5.6
2015-Mar-21 16:33N 54°20' W 000°14'5 5.0
2015-Mar-21 15:34N 54°16' W 000°09'5 5.2
2015-Mar-21 14:34N 54°12' W 000°03'5 5.2
2015-Mar-21 13:34N 54°08' E 000°01'6 6.0
2015-Mar-21 12:33N 54°02' E 000°06'7 6.9
2015-Mar-21 11:33N 53°56' E 000°11'8 8.2
2015-Mar-21 10:33N 53°49' E 000°18'9 8.7
2015-Mar-21 09:33N 53°42' E 000°26'8 8.2
2015-Mar-21 08:33N 53°34' E 000°32'37 7.0
2015-Mar-21 03:17N 53°03' E 001°05'811.4
2015-Mar-21 02:33N 52°59' E 001°17'1212.2
2015-Mar-21 01:33N 52°52' E 001°33'1312.8
2015-Mar-21 00:33N 52°42' E 001°47'1110.6
2015-Mar-20 23:33N 52°32' E 001°51'9 9.3
2015-Mar-20 22:33N 52°23' E 001°48'8 8.5
2015-Mar-20 21:33N 52°15' E 001°44'8 7.5
2015-Mar-20 20:33N 52°07' E 001°41'7 7.4
2015-Mar-20 19:33N 52°01' E 001°36'8 7.8
2015-Mar-20 18:34N 51°53' E 001°31'1010.1
2015-Mar-20 17:33N 51°44' E 001°24'1211.7
2015-Mar-20 16:33N 51°35' E 001°12'1312.6
2015-Mar-20 15:33N 51°30' E 000°54'1312.9
2015-Mar-20 14:33N 51°30' E 000°33'8 8.4
2015-Mar-20 13:34N 51°28' E 000°20'0 0.1
2015-Mar-20 12:31N 51°28' E 000°20'0 0.0
2015-Mar-20 11:33N 51°28' E 000°20'0 0.0
2015-Mar-20 10:34N 51°28' E 000°20'0 0.0
2015-Mar-20 09:33N 51°28' E 000°20'0 0.0
2015-Mar-20 08:34N 51°28' E 000°20'0 0.0
2015-Mar-20 07:34N 51°28' E 000°20'0 0.0
2015-Mar-20 06:30N 51°28' E 000°20'0 0.0
2015-Mar-20 05:34N 51°28' E 000°20'0 0.0
2015-Mar-20 04:33N 51°28' E 000°20'0 0.0
2015-Mar-20 03:33N 51°28' E 000°20'0 0.0
2015-Mar-20 02:34N 51°28' E 000°20'0 0.0
2015-Mar-20 01:34N 51°28' E 000°20'0 0.1
2015-Mar-20 00:33N 51°28' E 000°20'8 8.1
2015-Mar-19 23:34N 51°30' E 000°32'1212.4
2015-Mar-19 22:34N 51°30' E 000°52'1010.0
2015-Mar-19 21:34N 51°30' E 001°08'1212.0
2015-Mar-19 20:34N 51°27' E 001°27'8 8.2
2015-Mar-19 19:34N 51°20' E 001°35'7 6.9
2015-Mar-19 18:34N 51°14' E 001°37'7 6.5
2015-Mar-19 17:34N 51°07' E 001°39'6 6.5
2015-Mar-19 16:34N 51°02' E 001°34'7 7.3
2015-Mar-19 15:33N 50°56' E 001°28'101 9.9
2015-Mar-19 05:18N 50°25' W 001°05'1012.4
2015-Mar-19 04:30N 50°26' W 001°20'53 8.5
2015-Mar-18 22:15N 50°22' W 002°43'7 9.8
2015-Mar-18 21:34N 50°20' W 002°53'1010.3
2015-Mar-18 20:34N 50°17' W 003°08'1110.8
2015-Mar-18 19:34N 50°13' W 003°24'224 9.3
2015-Mar-17 19:32N 50°58' W 009°10'1010.4
2015-Mar-17 18:34N 51°04' W 009°23'1010.3
2015-Mar-17 17:34N 51°11' W 009°35'1010.3
2015-Mar-17 16:34N 51°17' W 009°48'1010.1
2015-Mar-17 15:34N 51°24' W 010°00'1010.3
2015-Mar-17 14:33N 51°30' W 010°13'11 9.9
2015-Mar-17 13:28N 51°38' W 010°26'13 9.7
2015-Mar-17 12:05N 51°49' W 010°37'7 9.8
2015-Mar-17 11:21N 51°56' W 010°41'14 8.1
2015-Mar-17 09:33N 52°10' W 010°36'1110.5
2015-Mar-17 08:29N 52°16' W 010°21'1010.9
2015-Mar-17 07:34N 52°22' W 010°07'1111.3
2015-Mar-17 06:34N 52°29' W 009°52'  

Dump ship's entire track history